Terminal Aerodrome Forecast
Issued by NWS Jackson, MS

Home | Current Version | Previous Version | Text Only | Print | Product List | Glossary On
Versions: 1 2 3 4 5 6 7 8 9 10 11 12 13 14
000
FTUS44 KJAN 222341
TAFMEI
TAF
KMEI 222341Z 2300/2324 02004KT P6SM SCT250
     FM230500 00000KT 5SM BR FEW090 SCT250
     FM230600 00000KT 3SM BR FEW050 SCT250
     FM230800 00000KT 1SM BR FEW015 SCT250
     FM230900 00000KT 1/4SM FG BKN003 BKN250
     FM231430 13003KT 3SM BR BKN003 BKN250
     FM231630 15006KT P6SM FEW050 SCT250=

USA.gov is the U.S. government's official web portal to all federal, state and local government web resources and services.